sensor_id;sensor_type;location;lat;lon;timestamp;P1;durP1;ratioP1;P2;durP2;ratioP2
8791;SDS011;4432;50.890;4.744;2022-11-12T00:01:27;9.33;;;5.20;;
8791;SDS011;4432;50.890;4.744;2022-11-12T00:03:53;7.20;;;4.80;;
8791;SDS011;4432;50.890;4.744;2022-11-12T00:06:20;8.53;;;6.07;;
8791;SDS011;4432;50.890;4.744;2022-11-12T00:08:45;8.20;;;4.40;;
8791;SDS011;4432;50.890;4.744;2022-11-12T00:11:11;8.07;;;5.60;;
8791;SDS011;4432;50.890;4.744;2022-11-12T00:13:37;6.30;;;4.80;;
8791;SDS011;4432;50.890;4.744;2022-11-12T00:16:03;5.73;;;4.37;;
8791;SDS011;4432;50.890;4.744;2022-11-12T00:18:30;8.80;;;5.77;;
8791;SDS011;4432;50.890;4.744;2022-11-12T00:20:55;7.33;;;5.07;;
8791;SDS011;4432;50.890;4.744;2022-11-12T00:23:21;5.17;;;3.90;;
8791;SDS011;4432;50.890;4.744;2022-11-12T00:25:47;8.93;;;4.70;;
8791;SDS011;4432;50.890;4.744;2022-11-12T00:28:21;5.63;;;4.23;;
8791;SDS011;4432;50.890;4.744;2022-11-12T00:30:47;4.67;;;4.17;;
8791;SDS011;4432;50.890;4.744;2022-11-12T00:33:12;5.13;;;4.10;;
8791;SDS011;4432;50.890;4.744;2022-11-12T00:35:38;5.60;;;4.33;;
8791;SDS011;4432;50.890;4.744;2022-11-12T00:38:04;7.43;;;4.77;;
8791;SDS011;4432;50.890;4.744;2022-11-12T00:40:29;6.83;;;4.40;;
8791;SDS011;4432;50.890;4.744;2022-11-12T00:42:55;5.03;;;4.00;;
8791;SDS011;4432;50.890;4.744;2022-11-12T00:45:21;6.37;;;4.20;;
8791;SDS011;4432;50.890;4.744;2022-11-12T00:47:47;6.80;;;4.43;;
8791;SDS011;4432;50.890;4.744;2022-11-12T00:50:13;6.03;;;4.20;;
8791;SDS011;4432;50.890;4.744;2022-11-12T00:52:40;6.83;;;5.17;;
8791;SDS011;4432;50.890;4.744;2022-11-12T00:55:06;8.50;;;4.77;;
8791;SDS011;4432;50.890;4.744;2022-11-12T00:57:31;6.07;;;4.63;;
8791;SDS011;4432;50.890;4.744;2022-11-12T00:59:57;4.97;;;3.83;;
8791;SDS011;4432;50.890;4.744;2022-11-12T01:02:23;6.00;;;4.73;;
8791;SDS011;4432;50.890;4.744;2022-11-12T01:04:48;8.50;;;5.50;;
8791;SDS011;4432;50.890;4.744;2022-11-12T01:07:14;7.43;;;5.30;;
8791;SDS011;4432;50.890;4.744;2022-11-12T01:09:40;7.87;;;4.60;;
8791;SDS011;4432;50.890;4.744;2022-11-12T01:12:06;6.90;;;4.80;;
8791;SDS011;4432;50.890;4.744;2022-11-12T01:14:32;6.47;;;4.30;;
8791;SDS011;4432;50.890;4.744;2022-11-12T01:16:57;7.60;;;4.20;;
8791;SDS011;4432;50.890;4.744;2022-11-12T01:19:23;7.37;;;5.20;;
8791;SDS011;4432;50.890;4.744;2022-11-12T01:21:49;7.63;;;4.77;;
8791;SDS011;4432;50.890;4.744;2022-11-12T01:24:14;7.93;;;4.43;;
8791;SDS011;4432;50.890;4.744;2022-11-12T01:26:40;6.63;;;4.67;;
8791;SDS011;4432;50.890;4.744;2022-11-12T01:29:06;7.10;;;4.87;;
8791;SDS011;4432;50.890;4.744;2022-11-12T01:31:33;6.77;;;4.33;;
8791;SDS011;4432;50.890;4.744;2022-11-12T01:34:01;6.63;;;4.87;;
8791;SDS011;4432;50.890;4.744;2022-11-12T01:36:31;9.43;;;5.30;;
8791;SDS011;4432;50.890;4.744;2022-11-12T01:38:58;6.17;;;4.30;;
8791;SDS011;4432;50.890;4.744;2022-11-12T01:41:26;6.33;;;4.57;;
8791;SDS011;4432;50.890;4.744;2022-11-12T01:44:07;7.13;;;4.87;;
8791;SDS011;4432;50.890;4.744;2022-11-12T01:46:47;6.17;;;4.60;;
8791;SDS011;4432;50.890;4.744;2022-11-12T01:49:26;7.90;;;5.03;;
8791;SDS011;4432;50.890;4.744;2022-11-12T01:51:56;11.10;;;4.63;;
8791;SDS011;4432;50.890;4.744;2022-11-12T01:54:30;7.90;;;5.10;;
8791;SDS011;4432;50.890;4.744;2022-11-12T01:56:56;7.40;;;5.50;;
8791;SDS011;4432;50.890;4.744;2022-11-12T01:59:28;7.47;;;4.57;;
8791;SDS011;4432;50.890;4.744;2022-11-12T02:01:57;5.63;;;4.80;;
8791;SDS011;4432;50.890;4.744;2022-11-12T02:04:23;7.03;;;5.07;;
8791;SDS011;4432;50.890;4.744;2022-11-12T02:06:50;7.63;;;4.73;;
8791;SDS011;4432;50.890;4.744;2022-11-12T02:09:17;6.40;;;4.73;;
8791;SDS011;4432;50.890;4.744;2022-11-12T02:11:43;7.07;;;4.00;;
8791;SDS011;4432;50.890;4.744;2022-11-12T02:14:09;7.20;;;4.20;;
8791;SDS011;4432;50.890;4.744;2022-11-12T02:16:36;7.30;;;4.90;;
8791;SDS011;4432;50.890;4.744;2022-11-12T02:19:07;5.70;;;4.13;;
8791;SDS011;4432;50.890;4.744;2022-11-12T02:21:37;7.43;;;4.60;;
8791;SDS011;4432;50.890;4.744;2022-11-12T02:26:44;7.70;;;4.07;;
8791;SDS011;4432;50.890;4.744;2022-11-12T02:29:12;5.07;;;3.50;;
8791;SDS011;4432;50.890;4.744;2022-11-12T02:31:38;7.10;;;3.93;;
8791;SDS011;4432;50.890;4.744;2022-11-12T02:34:04;5.10;;;3.73;;
8791;SDS011;4432;50.890;4.744;2022-11-12T02:36:30;6.37;;;4.87;;
8791;SDS011;4432;50.890;4.744;2022-11-12T02:38:56;8.77;;;4.87;;
8791;SDS011;4432;50.890;4.744;2022-11-12T02:41:22;7.43;;;4.80;;
8791;SDS011;4432;50.890;4.744;2022-11-12T02:43:48;8.20;;;4.43;;
8791;SDS011;4432;50.890;4.744;2022-11-12T02:46:14;6.43;;;4.03;;
8791;SDS011;4432;50.890;4.744;2022-11-12T02:48:40;5.53;;;4.33;;
8791;SDS011;4432;50.890;4.744;2022-11-12T02:51:05;11.83;;;4.63;;
8791;SDS011;4432;50.890;4.744;2022-11-12T02:53:31;5.23;;;4.20;;
8791;SDS011;4432;50.890;4.744;2022-11-12T02:55:58;8.00;;;4.40;;
8791;SDS011;4432;50.890;4.744;2022-11-12T02:58:25;8.60;;;3.87;;
8791;SDS011;4432;50.890;4.744;2022-11-12T03:00:51;6.43;;;4.07;;
8791;SDS011;4432;50.890;4.744;2022-11-12T03:03:17;4.50;;;3.73;;
8791;SDS011;4432;50.890;4.744;2022-11-12T03:05:43;7.00;;;4.63;;
8791;SDS011;4432;50.890;4.744;2022-11-12T03:08:10;4.63;;;3.80;;
8791;SDS011;4432;50.890;4.744;2022-11-12T03:10:36;6.83;;;4.20;;
8791;SDS011;4432;50.890;4.744;2022-11-12T03:13:03;6.20;;;4.30;;
8791;SDS011;4432;50.890;4.744;2022-11-12T03:15:29;6.37;;;4.20;;
8791;SDS011;4432;50.890;4.744;2022-11-12T03:17:56;6.13;;;4.43;;
8791;SDS011;4432;50.890;4.744;2022-11-12T03:20:23;6.27;;;3.97;;
8791;SDS011;4432;50.890;4.744;2022-11-12T03:22:56;6.43;;;4.17;;
8791;SDS011;4432;50.890;4.744;2022-11-12T03:25:24;5.90;;;4.43;;
8791;SDS011;4432;50.890;4.744;2022-11-12T03:27:57;5.87;;;4.40;;
8791;SDS011;4432;50.890;4.744;2022-11-12T03:30:25;7.47;;;4.67;;
8791;SDS011;4432;50.890;4.744;2022-11-12T03:32:51;7.07;;;4.33;;
8791;SDS011;4432;50.890;4.744;2022-11-12T03:35:17;6.83;;;5.27;;
8791;SDS011;4432;50.890;4.744;2022-11-12T03:37:42;6.23;;;4.37;;
8791;SDS011;4432;50.890;4.744;2022-11-12T03:40:08;6.03;;;3.90;;
8791;SDS011;4432;50.890;4.744;2022-11-12T03:42:34;5.80;;;3.70;;
8791;SDS011;4432;50.890;4.744;2022-11-12T03:45:00;6.43;;;4.30;;
8791;SDS011;4432;50.890;4.744;2022-11-12T03:47:25;5.37;;;3.67;;
8791;SDS011;4432;50.890;4.744;2022-11-12T03:49:51;6.20;;;4.17;;
8791;SDS011;4432;50.890;4.744;2022-11-12T03:52:17;7.03;;;4.00;;
8791;SDS011;4432;50.890;4.744;2022-11-12T03:54:43;8.07;;;4.13;;
8791;SDS011;4432;50.890;4.744;2022-11-12T03:57:08;6.10;;;3.97;;
8791;SDS011;4432;50.890;4.744;2022-11-12T03:59:34;6.73;;;4.10;;
8791;SDS011;4432;50.890;4.744;2022-11-12T04:02:00;8.47;;;4.77;;
8791;SDS011;4432;50.890;4.744;2022-11-12T04:04:25;8.10;;;4.43;;
8791;SDS011;4432;50.890;4.744;2022-11-12T04:07:11;9.37;;;4.47;;
8791;SDS011;4432;50.890;4.744;2022-11-12T04:09:55;11.17;;;4.50;;
8791;SDS011;4432;50.890;4.744;2022-11-12T04:12:20;5.83;;;4.30;;
8791;SDS011;4432;50.890;4.744;2022-11-12T04:15:05;6.23;;;3.80;;
8791;SDS011;4432;50.890;4.744;2022-11-12T04:17:30;5.97;;;4.33;;
8791;SDS011;4432;50.890;4.744;2022-11-12T04:20:15;5.87;;;4.60;;
8791;SDS011;4432;50.890;4.744;2022-11-12T04:22:59;7.50;;;4.03;;
8791;SDS011;4432;50.890;4.744;2022-11-12T04:25:25;5.83;;;4.30;;
8791;SDS011;4432;50.890;4.744;2022-11-12T04:28:09;5.60;;;4.10;;
8791;SDS011;4432;50.890;4.744;2022-11-12T04:30:34;7.50;;;4.70;;
8791;SDS011;4432;50.890;4.744;2022-11-12T04:33:00;6.07;;;3.80;;
8791;SDS011;4432;50.890;4.744;2022-11-12T04:35:26;6.10;;;3.77;;
8791;SDS011;4432;50.890;4.744;2022-11-12T04:37:52;5.57;;;4.17;;
8791;SDS011;4432;50.890;4.744;2022-11-12T04:40:20;6.07;;;4.00;;
8791;SDS011;4432;50.890;4.744;2022-11-12T04:43:08;3.70;;;3.10;;
8791;SDS011;4432;50.890;4.744;2022-11-12T04:45:54;6.77;;;3.97;;
8791;SDS011;4432;50.890;4.744;2022-11-12T04:48:21;4.43;;;3.87;;
8791;SDS011;4432;50.890;4.744;2022-11-12T04:50:57;6.67;;;4.27;;
8791;SDS011;4432;50.890;4.744;2022-11-12T04:53:25;5.00;;;3.30;;
8791;SDS011;4432;50.890;4.744;2022-11-12T04:55:52;5.07;;;4.50;;
8791;SDS011;4432;50.890;4.744;2022-11-12T04:58:20;7.23;;;4.57;;
8791;SDS011;4432;50.890;4.744;2022-11-12T05:00:46;7.10;;;3.80;;
8791;SDS011;4432;50.890;4.744;2022-11-12T05:03:14;4.80;;;3.50;;
8791;SDS011;4432;50.890;4.744;2022-11-12T05:05:40;5.53;;;3.60;;
8791;SDS011;4432;50.890;4.744;2022-11-12T05:08:06;7.43;;;3.83;;
8791;SDS011;4432;50.890;4.744;2022-11-12T05:10:31;6.87;;;4.33;;
8791;SDS011;4432;50.890;4.744;2022-11-12T05:12:57;6.03;;;4.00;;
8791;SDS011;4432;50.890;4.744;2022-11-12T05:15:23;5.77;;;3.90;;
8791;SDS011;4432;50.890;4.744;2022-11-12T05:17:49;4.77;;;3.70;;
8791;SDS011;4432;50.890;4.744;2022-11-12T05:20:15;6.07;;;3.73;;
8791;SDS011;4432;50.890;4.744;2022-11-12T05:22:41;5.50;;;4.00;;
8791;SDS011;4432;50.890;4.744;2022-11-12T05:25:07;7.00;;;3.47;;
8791;SDS011;4432;50.890;4.744;2022-11-12T05:27:33;5.17;;;3.57;;
8791;SDS011;4432;50.890;4.744;2022-11-12T05:29:59;5.40;;;4.00;;
8791;SDS011;4432;50.890;4.744;2022-11-12T05:32:25;7.70;;;4.20;;
8791;SDS011;4432;50.890;4.744;2022-11-12T05:34:51;6.90;;;3.77;;
8791;SDS011;4432;50.890;4.744;2022-11-12T05:37:16;4.53;;;3.33;;
8791;SDS011;4432;50.890;4.744;2022-11-12T05:39:43;7.20;;;3.73;;
8791;SDS011;4432;50.890;4.744;2022-11-12T05:42:08;5.77;;;3.73;;
8791;SDS011;4432;50.890;4.744;2022-11-12T05:44:34;8.30;;;4.00;;
8791;SDS011;4432;50.890;4.744;2022-11-12T05:47:00;5.73;;;3.83;;
8791;SDS011;4432;50.890;4.744;2022-11-12T05:49:26;6.10;;;4.03;;
8791;SDS011;4432;50.890;4.744;2022-11-12T05:51:52;3.50;;;3.03;;
8791;SDS011;4432;50.890;4.744;2022-11-12T05:54:17;5.13;;;3.60;;
8791;SDS011;4432;50.890;4.744;2022-11-12T05:56:43;7.30;;;3.60;;
8791;SDS011;4432;50.890;4.744;2022-11-12T05:59:10;4.23;;;3.27;;
8791;SDS011;4432;50.890;4.744;2022-11-12T06:01:37;7.07;;;3.73;;
8791;SDS011;4432;50.890;4.744;2022-11-12T06:04:17;5.93;;;3.97;;
8791;SDS011;4432;50.890;4.744;2022-11-12T06:06:43;6.47;;;3.60;;
8791;SDS011;4432;50.890;4.744;2022-11-12T06:09:09;6.83;;;3.80;;
8791;SDS011;4432;50.890;4.744;2022-11-12T06:11:35;4.47;;;3.40;;
8791;SDS011;4432;50.890;4.744;2022-11-12T06:14:01;6.47;;;3.47;;
8791;SDS011;4432;50.890;4.744;2022-11-12T06:16:28;5.27;;;3.10;;
8791;SDS011;4432;50.890;4.744;2022-11-12T06:18:54;6.87;;;4.33;;
8791;SDS011;4432;50.890;4.744;2022-11-12T06:21:20;6.67;;;4.00;;
8791;SDS011;4432;50.890;4.744;2022-11-12T06:24:05;3.90;;;3.50;;
8791;SDS011;4432;50.890;4.744;2022-11-12T06:26:30;4.93;;;3.60;;
8791;SDS011;4432;50.890;4.744;2022-11-12T06:28:56;5.43;;;3.77;;
8791;SDS011;4432;50.890;4.744;2022-11-12T06:31:22;7.37;;;3.67;;
8791;SDS011;4432;50.890;4.744;2022-11-12T06:33:48;5.93;;;4.17;;
8791;SDS011;4432;50.890;4.744;2022-11-12T06:36:15;6.73;;;3.90;;
8791;SDS011;4432;50.890;4.744;2022-11-12T06:38:42;4.97;;;3.70;;
8791;SDS011;4432;50.890;4.744;2022-11-12T06:41:10;9.27;;;4.50;;
8791;SDS011;4432;50.890;4.744;2022-11-12T06:43:37;13.00;;;5.90;;
8791;SDS011;4432;50.890;4.744;2022-11-12T06:46:07;8.10;;;4.03;;
8791;SDS011;4432;50.890;4.744;2022-11-12T06:48:40;6.10;;;3.70;;
8791;SDS011;4432;50.890;4.744;2022-11-12T06:51:24;10.47;;;4.50;;
8791;SDS011;4432;50.890;4.744;2022-11-12T06:53:50;6.93;;;3.63;;
8791;SDS011;4432;50.890;4.744;2022-11-12T06:56:15;7.87;;;3.60;;
8791;SDS011;4432;50.890;4.744;2022-11-12T06:58:41;9.27;;;5.07;;
8791;SDS011;4432;50.890;4.744;2022-11-12T07:01:11;5.87;;;3.90;;
8791;SDS011;4432;50.890;4.744;2022-11-12T07:03:40;8.10;;;4.23;;
8791;SDS011;4432;50.890;4.744;2022-11-12T07:06:08;5.60;;;4.20;;
8791;SDS011;4432;50.890;4.744;2022-11-12T07:08:35;9.50;;;6.43;;
8791;SDS011;4432;50.890;4.744;2022-11-12T07:11:01;6.97;;;5.07;;
8791;SDS011;4432;50.890;4.744;2022-11-12T07:13:31;9.57;;;3.97;;
8791;SDS011;4432;50.890;4.744;2022-11-12T07:15:58;7.10;;;4.83;;
8791;SDS011;4432;50.890;4.744;2022-11-12T07:18:25;5.80;;;4.63;;
8791;SDS011;4432;50.890;4.744;2022-11-12T07:20:56;10.20;;;5.17;;
8791;SDS011;4432;50.890;4.744;2022-11-12T07:23:30;7.43;;;4.97;;
8791;SDS011;4432;50.890;4.744;2022-11-12T07:28:23;9.00;;;4.43;;
8791;SDS011;4432;50.890;4.744;2022-11-12T07:30:53;7.73;;;4.67;;
8791;SDS011;4432;50.890;4.744;2022-11-12T07:33:20;7.63;;;4.83;;
8791;SDS011;4432;50.890;4.744;2022-11-12T07:35:46;8.33;;;4.27;;
8791;SDS011;4432;50.890;4.744;2022-11-12T07:38:12;6.53;;;4.47;;
8791;SDS011;4432;50.890;4.744;2022-11-12T07:40:37;14.57;;;4.77;;
8791;SDS011;4432;50.890;4.744;2022-11-12T07:43:03;5.70;;;3.93;;
8791;SDS011;4432;50.890;4.744;2022-11-12T07:45:29;7.33;;;4.93;;
8791;SDS011;4432;50.890;4.744;2022-11-12T07:47:57;9.43;;;5.33;;
8791;SDS011;4432;50.890;4.744;2022-11-12T07:50:23;8.20;;;4.63;;
8791;SDS011;4432;50.890;4.744;2022-11-12T07:52:49;9.47;;;5.27;;
8791;SDS011;4432;50.890;4.744;2022-11-12T07:55:14;7.13;;;4.50;;
8791;SDS011;4432;50.890;4.744;2022-11-12T07:57:40;6.43;;;4.47;;
8791;SDS011;4432;50.890;4.744;2022-11-12T08:00:06;8.13;;;4.30;;
8791;SDS011;4432;50.890;4.744;2022-11-12T08:02:32;10.13;;;5.93;;
8791;SDS011;4432;50.890;4.744;2022-11-12T08:04:58;7.60;;;4.23;;
8791;SDS011;4432;50.890;4.744;2022-11-12T08:07:24;8.50;;;4.80;;
8791;SDS011;4432;50.890;4.744;2022-11-12T08:09:49;8.33;;;5.40;;
8791;SDS011;4432;50.890;4.744;2022-11-12T08:12:15;7.53;;;5.00;;
8791;SDS011;4432;50.890;4.744;2022-11-12T08:14:41;8.90;;;5.90;;
8791;SDS011;4432;50.890;4.744;2022-11-12T08:17:06;11.90;;;5.93;;
8791;SDS011;4432;50.890;4.744;2022-11-12T08:19:32;7.90;;;5.67;;
8791;SDS011;4432;50.890;4.744;2022-11-12T08:21:58;6.47;;;5.40;;
8791;SDS011;4432;50.890;4.744;2022-11-12T08:24:24;7.80;;;4.97;;
8791;SDS011;4432;50.890;4.744;2022-11-12T08:26:49;8.93;;;5.80;;
8791;SDS011;4432;50.890;4.744;2022-11-12T08:29:15;7.43;;;4.80;;
8791;SDS011;4432;50.890;4.744;2022-11-12T08:31:41;7.23;;;5.03;;
8791;SDS011;4432;50.890;4.744;2022-11-12T08:34:06;5.97;;;4.83;;
8791;SDS011;4432;50.890;4.744;2022-11-12T08:36:38;6.40;;;4.73;;
8791;SDS011;4432;50.890;4.744;2022-11-12T08:39:05;6.67;;;4.93;;
8791;SDS011;4432;50.890;4.744;2022-11-12T08:41:31;5.90;;;5.07;;
8791;SDS011;4432;50.890;4.744;2022-11-12T08:43:57;5.73;;;4.73;;
8791;SDS011;4432;50.890;4.744;2022-11-12T08:46:23;7.07;;;5.30;;
8791;SDS011;4432;50.890;4.744;2022-11-12T08:48:49;6.17;;;4.73;;
8791;SDS011;4432;50.890;4.744;2022-11-12T08:51:14;7.10;;;4.97;;
8791;SDS011;4432;50.890;4.744;2022-11-12T08:53:40;6.60;;;5.00;;
8791;SDS011;4432;50.890;4.744;2022-11-12T08:56:06;10.43;;;6.23;;
8791;SDS011;4432;50.890;4.744;2022-11-12T08:58:32;7.73;;;5.10;;
8791;SDS011;4432;50.890;4.744;2022-11-12T09:01:02;11.27;;;6.93;;
8791;SDS011;4432;50.890;4.744;2022-11-12T09:03:29;8.67;;;6.53;;
8791;SDS011;4432;50.890;4.744;2022-11-12T09:05:55;9.50;;;6.37;;
8791;SDS011;4432;50.890;4.744;2022-11-12T09:08:22;11.37;;;7.17;;
8791;SDS011;4432;50.890;4.744;2022-11-12T09:10:49;11.33;;;6.80;;
8791;SDS011;4432;50.890;4.744;2022-11-12T09:13:16;8.77;;;6.33;;
8791;SDS011;4432;50.890;4.744;2022-11-12T09:15:43;9.80;;;5.60;;
8791;SDS011;4432;50.890;4.744;2022-11-12T09:18:10;7.47;;;6.07;;
8791;SDS011;4432;50.890;4.744;2022-11-12T09:20:38;6.30;;;4.93;;
8791;SDS011;4432;50.890;4.744;2022-11-12T09:23:07;7.53;;;5.13;;
8791;SDS011;4432;50.890;4.744;2022-11-12T09:25:35;6.30;;;4.70;;
8791;SDS011;4432;50.890;4.744;2022-11-12T09:28:08;7.17;;;4.77;;
8791;SDS011;4432;50.890;4.744;2022-11-12T09:30:43;9.57;;;5.57;;
8791;SDS011;4432;50.890;4.744;2022-11-12T09:33:11;6.43;;;4.30;;
8791;SDS011;4432;50.890;4.744;2022-11-12T09:35:41;4.57;;;3.93;;
8791;SDS011;4432;50.890;4.744;2022-11-12T09:38:07;7.13;;;4.20;;
8791;SDS011;4432;50.890;4.744;2022-11-12T09:43:33;8.90;;;4.70;;
8791;SDS011;4432;50.890;4.744;2022-11-12T09:48:59;5.67;;;3.87;;
8791;SDS011;4432;50.890;4.744;2022-11-12T09:51:35;5.17;;;3.57;;
8791;SDS011;4432;50.890;4.744;2022-11-12T09:54:23;7.43;;;3.37;;
8791;SDS011;4432;50.890;4.744;2022-11-12T09:56:51;6.33;;;4.47;;
8791;SDS011;4432;50.890;4.744;2022-11-12T09:59:19;4.50;;;3.37;;
8791;SDS011;4432;50.890;4.744;2022-11-12T10:04:39;4.20;;;3.40;;
8791;SDS011;4432;50.890;4.744;2022-11-12T10:07:38;4.80;;;3.57;;
8791;SDS011;4432;50.890;4.744;2022-11-12T10:13:24;3.73;;;3.17;;
8791;SDS011;4432;50.890;4.744;2022-11-12T10:24:47;3.70;;;2.87;;
8791;SDS011;4432;50.890;4.744;2022-11-12T10:27:23;7.13;;;3.07;;
8791;SDS011;4432;50.890;4.744;2022-11-12T10:29:59;3.03;;;2.73;;
8791;SDS011;4432;50.890;4.744;2022-11-12T10:32:28;3.37;;;3.07;;
8791;SDS011;4432;50.890;4.744;2022-11-12T10:34:53;6.00;;;3.23;;
8791;SDS011;4432;50.890;4.744;2022-11-12T10:37:22;3.20;;;2.90;;
8791;SDS011;4432;50.890;4.744;2022-11-12T10:42:56;3.00;;;2.73;;
8791;SDS011;4432;50.890;4.744;2022-11-12T10:45:30;4.77;;;2.77;;
8791;SDS011;4432;50.890;4.744;2022-11-12T10:47:56;4.40;;;3.30;;
8791;SDS011;4432;50.890;4.744;2022-11-12T10:50:39;3.27;;;2.97;;
8791;SDS011;4432;50.890;4.744;2022-11-12T10:53:07;3.37;;;2.83;;
8791;SDS011;4432;50.890;4.744;2022-11-12T10:55:57;4.03;;;3.23;;
8791;SDS011;4432;50.890;4.744;2022-11-12T10:58:23;3.80;;;3.07;;
8791;SDS011;4432;50.890;4.744;2022-11-12T11:00:53;4.70;;;2.97;;
8791;SDS011;4432;50.890;4.744;2022-11-12T11:03:23;3.77;;;2.93;;
8791;SDS011;4432;50.890;4.744;2022-11-12T11:08:33;2.63;;;2.43;;
8791;SDS011;4432;50.890;4.744;2022-11-12T11:11:10;3.03;;;2.57;;
8791;SDS011;4432;50.890;4.744;2022-11-12T11:13:38;3.60;;;3.10;;
8791;SDS011;4432;50.890;4.744;2022-11-12T11:16:05;2.67;;;2.33;;
8791;SDS011;4432;50.890;4.744;2022-11-12T11:18:35;3.40;;;2.80;;
8791;SDS011;4432;50.890;4.744;2022-11-12T11:35:13;2.50;;;2.30;;
8791;SDS011;4432;50.890;4.744;2022-11-12T11:38:01;3.10;;;2.50;;
8791;SDS011;4432;50.890;4.744;2022-11-12T11:43:24;2.70;;;2.40;;
8791;SDS011;4432;50.890;4.744;2022-11-12T11:46:16;2.47;;;2.27;;
8791;SDS011;4432;50.890;4.744;2022-11-12T11:54:21;3.07;;;2.13;;
8791;SDS011;4432;50.890;4.744;2022-11-12T11:56:59;1.73;;;1.60;;
8791;SDS011;4432;50.890;4.744;2022-11-12T11:59:32;1.70;;;1.57;;
8791;SDS011;4432;50.890;4.744;2022-11-12T12:05:16;1.73;;;1.47;;
8791;SDS011;4432;50.890;4.744;2022-11-12T12:07:54;1.70;;;1.60;;
8791;SDS011;4432;50.890;4.744;2022-11-12T12:21:30;1.57;;;1.47;;
8791;SDS011;4432;50.890;4.744;2022-11-12T12:24:03;2.40;;;1.50;;
8791;SDS011;4432;50.890;4.744;2022-11-12T12:26:45;1.93;;;1.80;;
8791;SDS011;4432;50.890;4.744;2022-11-12T12:29:16;1.63;;;1.53;;
8791;SDS011;4432;50.890;4.744;2022-11-12T12:31:47;1.53;;;1.43;;
8791;SDS011;4432;50.890;4.744;2022-11-12T12:34:32;2.30;;;1.70;;
8791;SDS011;4432;50.890;4.744;2022-11-12T12:37:08;2.07;;;1.77;;
8791;SDS011;4432;50.890;4.744;2022-11-12T12:40:01;1.80;;;1.70;;
8791;SDS011;4432;50.890;4.744;2022-11-12T12:42:54;1.40;;;1.30;;
8791;SDS011;4432;50.890;4.744;2022-11-12T12:48:03;3.07;;;1.60;;
8791;SDS011;4432;50.890;4.744;2022-11-12T12:50:31;1.53;;;1.43;;
8791;SDS011;4432;50.890;4.744;2022-11-12T12:53:01;1.60;;;1.50;;
8791;SDS011;4432;50.890;4.744;2022-11-12T12:55:48;1.60;;;1.50;;
8791;SDS011;4432;50.890;4.744;2022-11-12T13:01:02;1.33;;;1.23;;
8791;SDS011;4432;50.890;4.744;2022-11-12T13:17:01;1.50;;;1.40;;
8791;SDS011;4432;50.890;4.744;2022-11-12T13:19:32;1.63;;;1.23;;
8791;SDS011;4432;50.890;4.744;2022-11-12T13:45:56;2.10;;;1.20;;
8791;SDS011;4432;50.890;4.744;2022-11-12T13:48:29;1.67;;;1.40;;
8791;SDS011;4432;50.890;4.744;2022-11-12T13:51:04;2.93;;;1.60;;
8791;SDS011;4432;50.890;4.744;2022-11-12T13:53:38;2.13;;;1.40;;
8791;SDS011;4432;50.890;4.744;2022-11-12T13:56:04;1.83;;;1.53;;
8791;SDS011;4432;50.890;4.744;2022-11-12T13:58:31;2.20;;;1.50;;
8791;SDS011;4432;50.890;4.744;2022-11-12T14:00:59;1.50;;;1.40;;
8791;SDS011;4432;50.890;4.744;2022-11-12T14:03:44;3.30;;;1.50;;
8791;SDS011;4432;50.890;4.744;2022-11-12T14:06:17;1.37;;;1.23;;
8791;SDS011;4432;50.890;4.744;2022-11-12T14:08:50;1.50;;;1.40;;
8791;SDS011;4432;50.890;4.744;2022-11-12T14:22:56;1.57;;;1.13;;
8791;SDS011;4432;50.890;4.744;2022-11-12T14:25:47;1.60;;;1.50;;
8791;SDS011;4432;50.890;4.744;2022-11-12T14:28:25;1.00;;;1.00;;
8791;SDS011;4432;50.890;4.744;2022-11-12T14:30:53;1.50;;;1.40;;
8791;SDS011;4432;50.890;4.744;2022-11-12T14:33:20;4.10;;;1.50;;
8791;SDS011;4432;50.890;4.744;2022-11-12T14:35:48;4.27;;;1.33;;
8791;SDS011;4432;50.890;4.744;2022-11-12T14:38:17;1.80;;;1.70;;
8791;SDS011;4432;50.890;4.744;2022-11-12T14:40:47;1.40;;;1.30;;
8791;SDS011;4432;50.890;4.744;2022-11-12T14:43:27;1.27;;;1.20;;
8791;SDS011;4432;50.890;4.744;2022-11-12T14:45:54;1.67;;;1.57;;
8791;SDS011;4432;50.890;4.744;2022-11-12T14:48:22;1.47;;;1.37;;
8791;SDS011;4432;50.890;4.744;2022-11-12T14:50:49;2.23;;;1.30;;
8791;SDS011;4432;50.890;4.744;2022-11-12T14:53:26;1.53;;;1.40;;
8791;SDS011;4432;50.890;4.744;2022-11-12T14:55:56;1.60;;;1.40;;
8791;SDS011;4432;50.890;4.744;2022-11-12T14:58:23;1.83;;;1.53;;
8791;SDS011;4432;50.890;4.744;2022-11-12T15:00:52;1.27;;;1.27;;
8791;SDS011;4432;50.890;4.744;2022-11-12T15:03:23;1.40;;;1.30;;
8791;SDS011;4432;50.890;4.744;2022-11-12T15:06:12;1.97;;;1.60;;
8791;SDS011;4432;50.890;4.744;2022-11-12T15:08:54;1.53;;;1.43;;
8791;SDS011;4432;50.890;4.744;2022-11-12T15:13:47;2.03;;;1.47;;
8791;SDS011;4432;50.890;4.744;2022-11-12T15:16:18;5.27;;;3.57;;
8791;SDS011;4432;50.890;4.744;2022-11-12T15:19:25;3.60;;;2.60;;
8791;SDS011;4432;50.890;4.744;2022-11-12T15:22:05;1.50;;;1.40;;
8791;SDS011;4432;50.890;4.744;2022-11-12T15:24:41;1.50;;;1.40;;
8791;SDS011;4432;50.890;4.744;2022-11-12T15:30:22;1.97;;;1.77;;
8791;SDS011;4432;50.890;4.744;2022-11-12T15:33:05;3.83;;;1.83;;
8791;SDS011;4432;50.890;4.744;2022-11-12T15:35:35;1.60;;;1.40;;
8791;SDS011;4432;50.890;4.744;2022-11-12T15:41:00;1.53;;;1.43;;
8791;SDS011;4432;50.890;4.744;2022-11-12T15:43:31;1.50;;;1.40;;
8791;SDS011;4432;50.890;4.744;2022-11-12T15:45:59;2.80;;;1.97;;
8791;SDS011;4432;50.890;4.744;2022-11-12T15:48:26;4.10;;;1.77;;
8791;SDS011;4432;50.890;4.744;2022-11-12T15:50:52;2.50;;;1.90;;
8791;SDS011;4432;50.890;4.744;2022-11-12T15:53:18;4.30;;;2.10;;
8791;SDS011;4432;50.890;4.744;2022-11-12T15:55:44;2.70;;;1.70;;
8791;SDS011;4432;50.890;4.744;2022-11-12T15:58:21;3.80;;;2.00;;
8791;SDS011;4432;50.890;4.744;2022-11-12T16:00:58;2.00;;;1.83;;
8791;SDS011;4432;50.890;4.744;2022-11-12T16:03:24;3.03;;;2.57;;
8791;SDS011;4432;50.890;4.744;2022-11-12T16:05:49;2.20;;;1.93;;
8791;SDS011;4432;50.890;4.744;2022-11-12T16:08:15;2.53;;;1.60;;
8791;SDS011;4432;50.890;4.744;2022-11-12T16:10:42;3.83;;;1.73;;
8791;SDS011;4432;50.890;4.744;2022-11-12T16:13:10;3.63;;;2.67;;
8791;SDS011;4432;50.890;4.744;2022-11-12T16:15:40;3.00;;;2.00;;
8791;SDS011;4432;50.890;4.744;2022-11-12T16:18:08;1.97;;;1.87;;
8791;SDS011;4432;50.890;4.744;2022-11-12T16:20:35;2.00;;;1.80;;
8791;SDS011;4432;50.890;4.744;2022-11-12T16:23:01;1.80;;;1.70;;
8791;SDS011;4432;50.890;4.744;2022-11-12T16:25:29;2.27;;;2.03;;
8791;SDS011;4432;50.890;4.744;2022-11-12T16:27:56;4.40;;;2.70;;
8791;SDS011;4432;50.890;4.744;2022-11-12T16:30:25;6.10;;;2.57;;
8791;SDS011;4432;50.890;4.744;2022-11-12T16:32:57;2.03;;;1.93;;
8791;SDS011;4432;50.890;4.744;2022-11-12T16:35:24;4.47;;;2.73;;
8791;SDS011;4432;50.890;4.744;2022-11-12T16:37:52;3.63;;;3.27;;
8791;SDS011;4432;50.890;4.744;2022-11-12T16:40:19;3.30;;;2.67;;
8791;SDS011;4432;50.890;4.744;2022-11-12T16:42:47;3.57;;;2.73;;
8791;SDS011;4432;50.890;4.744;2022-11-12T16:45:14;4.67;;;2.97;;
8791;SDS011;4432;50.890;4.744;2022-11-12T16:47:49;5.20;;;3.10;;
8791;SDS011;4432;50.890;4.744;2022-11-12T16:50:20;11.03;;;4.83;;
8791;SDS011;4432;50.890;4.744;2022-11-12T16:52:48;8.23;;;5.33;;
8791;SDS011;4432;50.890;4.744;2022-11-12T16:55:14;11.43;;;5.83;;
8791;SDS011;4432;50.890;4.744;2022-11-12T16:57:40;11.27;;;6.07;;
8791;SDS011;4432;50.890;4.744;2022-11-12T17:00:10;9.37;;;6.00;;
8791;SDS011;4432;50.890;4.744;2022-11-12T17:02:38;12.63;;;6.00;;
8791;SDS011;4432;50.890;4.744;2022-11-12T17:05:04;10.83;;;5.80;;
8791;SDS011;4432;50.890;4.744;2022-11-12T17:07:32;10.80;;;6.57;;
8791;SDS011;4432;50.890;4.744;2022-11-12T17:09:58;12.00;;;7.67;;
8791;SDS011;4432;50.890;4.744;2022-11-12T17:12:24;9.43;;;6.40;;
8791;SDS011;4432;50.890;4.744;2022-11-12T17:14:49;13.47;;;7.87;;
8791;SDS011;4432;50.890;4.744;2022-11-12T17:17:15;11.10;;;7.43;;
8791;SDS011;4432;50.890;4.744;2022-11-12T17:19:41;10.03;;;6.97;;
8791;SDS011;4432;50.890;4.744;2022-11-12T17:22:07;9.00;;;5.70;;
8791;SDS011;4432;50.890;4.744;2022-11-12T17:24:33;8.17;;;5.60;;
8791;SDS011;4432;50.890;4.744;2022-11-12T17:26:58;6.83;;;5.77;;
8791;SDS011;4432;50.890;4.744;2022-11-12T17:29:25;8.80;;;6.23;;
8791;SDS011;4432;50.890;4.744;2022-11-12T17:31:51;11.47;;;7.40;;
8791;SDS011;4432;50.890;4.744;2022-11-12T17:34:17;10.03;;;6.60;;
8791;SDS011;4432;50.890;4.744;2022-11-12T17:36:43;13.43;;;7.47;;
8791;SDS011;4432;50.890;4.744;2022-11-12T17:39:09;9.93;;;7.27;;